sensor_id;sensor_type;location;lat;lon;timestamp;temperature;humidity
10278;DHT22;5184;51.376;7.148;2023-06-14T00:00:59;16.10;99.90
10278;DHT22;5184;51.376;7.148;2023-06-14T00:03:25;16.10;99.90
10278;DHT22;5184;51.376;7.148;2023-06-14T00:05:52;16.10;1.00
10278;DHT22;5184;51.376;7.148;2023-06-14T00:08:19;16.10;1.00
10278;DHT22;5184;51.376;7.148;2023-06-14T00:10:45;16.10;1.00
10278;DHT22;5184;51.376;7.148;2023-06-14T00:13:12;16.10;1.00
10278;DHT22;5184;51.376;7.148;2023-06-14T00:15:38;16.00;1.00
10278;DHT22;5184;51.376;7.148;2023-06-14T00:18:05;16.00;1.00
10278;DHT22;5184;51.376;7.148;2023-06-14T00:20:32;16.10;99.90
10278;DHT22;5184;51.376;7.148;2023-06-14T00:23:00;16.20;99.90
10278;DHT22;5184;51.376;7.148;2023-06-14T00:25:27;16.60;99.90
10278;DHT22;5184;51.376;7.148;2023-06-14T00:27:54;16.20;99.90
10278;DHT22;5184;51.376;7.148;2023-06-14T00:30:20;16.30;99.90
10278;DHT22;5184;51.376;7.148;2023-06-14T00:32:47;16.20;1.00
10278;DHT22;5184;51.376;7.148;2023-06-14T00:35:13;16.20;99.90
10278;DHT22;5184;51.376;7.148;2023-06-14T00:37:40;16.20;99.90
10278;DHT22;5184;51.376;7.148;2023-06-14T00:40:07;16.10;99.90
10278;DHT22;5184;51.376;7.148;2023-06-14T00:42:34;16.10;99.90
10278;DHT22;5184;51.376;7.148;2023-06-14T00:45:01;16.10;99.90
10278;DHT22;5184;51.376;7.148;2023-06-14T00:47:28;16.10;99.90
10278;DHT22;5184;51.376;7.148;2023-06-14T00:49:55;16.10;99.90
10278;DHT22;5184;51.376;7.148;2023-06-14T00:52:21;16.20;99.90
10278;DHT22;5184;51.376;7.148;2023-06-14T00:54:48;16.20;99.90
10278;DHT22;5184;51.376;7.148;2023-06-14T00:57:15;16.20;99.90
10278;DHT22;5184;51.376;7.148;2023-06-14T00:59:44;16.20;99.90
10278;DHT22;5184;51.376;7.148;2023-06-14T01:02:10;16.20;99.90
10278;DHT22;5184;51.376;7.148;2023-06-14T01:04:37;16.20;99.90
10278;DHT22;5184;51.376;7.148;2023-06-14T01:07:07;16.10;99.90
10278;DHT22;5184;51.376;7.148;2023-06-14T01:12:25;16.10;99.90
10278;DHT22;5184;51.376;7.148;2023-06-14T01:14:51;16.10;99.90
10278;DHT22;5184;51.376;7.148;2023-06-14T01:17:18;16.10;99.90
10278;DHT22;5184;51.376;7.148;2023-06-14T01:19:45;16.00;99.90
10278;DHT22;5184;51.376;7.148;2023-06-14T01:22:13;16.00;99.90
10278;DHT22;5184;51.376;7.148;2023-06-14T01:24:40;15.90;99.90
10278;DHT22;5184;51.376;7.148;2023-06-14T01:27:07;15.90;99.90
10278;DHT22;5184;51.376;7.148;2023-06-14T01:29:33;15.90;99.90
10278;DHT22;5184;51.376;7.148;2023-06-14T01:32:00;15.80;99.90
10278;DHT22;5184;51.376;7.148;2023-06-14T01:34:26;15.70;99.90
10278;DHT22;5184;51.376;7.148;2023-06-14T01:36:53;15.70;99.90
10278;DHT22;5184;51.376;7.148;2023-06-14T01:39:20;15.40;1.00
10278;DHT22;5184;51.376;7.148;2023-06-14T01:41:48;15.30;1.00
10278;DHT22;5184;51.376;7.148;2023-06-14T01:44:16;15.20;1.00
10278;DHT22;5184;51.376;7.148;2023-06-14T01:46:42;15.20;1.00
10278;DHT22;5184;51.376;7.148;2023-06-14T01:49:08;15.10;1.00
10278;DHT22;5184;51.376;7.148;2023-06-14T01:51:35;15.10;1.00
10278;DHT22;5184;51.376;7.148;2023-06-14T01:54:01;15.00;1.00
10278;DHT22;5184;51.376;7.148;2023-06-14T01:56:28;14.90;1.00
10278;DHT22;5184;51.376;7.148;2023-06-14T01:58:55;14.90;1.00
10278;DHT22;5184;51.376;7.148;2023-06-14T02:01:21;14.80;1.00
10278;DHT22;5184;51.376;7.148;2023-06-14T02:03:48;14.80;1.00
10278;DHT22;5184;51.376;7.148;2023-06-14T02:06:16;14.80;1.00
10278;DHT22;5184;51.376;7.148;2023-06-14T02:08:43;14.70;1.00
10278;DHT22;5184;51.376;7.148;2023-06-14T02:11:11;14.60;1.00
10278;DHT22;5184;51.376;7.148;2023-06-14T02:13:38;14.60;1.00
10278;DHT22;5184;51.376;7.148;2023-06-14T02:16:05;14.60;1.00
10278;DHT22;5184;51.376;7.148;2023-06-14T02:18:33;14.60;1.00
10278;DHT22;5184;51.376;7.148;2023-06-14T02:21:00;14.60;1.00
10278;DHT22;5184;51.376;7.148;2023-06-14T02:23:27;14.70;1.00
10278;DHT22;5184;51.376;7.148;2023-06-14T02:25:53;14.70;1.00
10278;DHT22;5184;51.376;7.148;2023-06-14T02:28:20;14.60;1.00
10278;DHT22;5184;51.376;7.148;2023-06-14T02:30:46;14.60;1.00
10278;DHT22;5184;51.376;7.148;2023-06-14T02:33:13;14.50;10.60
10278;DHT22;5184;51.376;7.148;2023-06-14T02:35:40;14.50;17.60
10278;DHT22;5184;51.376;7.148;2023-06-14T02:38:06;14.40;29.80
10278;DHT22;5184;51.376;7.148;2023-06-14T02:40:34;14.30;99.90
10278;DHT22;5184;51.376;7.148;2023-06-14T02:43:01;14.20;99.90
10278;DHT22;5184;51.376;7.148;2023-06-14T02:45:27;14.20;99.90
10278;DHT22;5184;51.376;7.148;2023-06-14T02:47:54;14.10;99.90
10278;DHT22;5184;51.376;7.148;2023-06-14T02:50:21;14.10;99.90
10278;DHT22;5184;51.376;7.148;2023-06-14T02:52:47;14.10;99.90
10278;DHT22;5184;51.376;7.148;2023-06-14T02:55:14;14.00;99.90
10278;DHT22;5184;51.376;7.148;2023-06-14T02:57:41;14.00;99.90
10278;DHT22;5184;51.376;7.148;2023-06-14T03:00:09;14.00;99.90
10278;DHT22;5184;51.376;7.148;2023-06-14T03:02:36;14.00;99.90
10278;DHT22;5184;51.376;7.148;2023-06-14T03:05:02;13.90;99.90
10278;DHT22;5184;51.376;7.148;2023-06-14T03:07:29;13.90;99.90
10278;DHT22;5184;51.376;7.148;2023-06-14T03:09:56;13.80;99.90
10278;DHT22;5184;51.376;7.148;2023-06-14T03:12:22;13.80;1.00
10278;DHT22;5184;51.376;7.148;2023-06-14T03:14:49;13.70;1.00
10278;DHT22;5184;51.376;7.148;2023-06-14T03:17:15;13.70;1.00
10278;DHT22;5184;51.376;7.148;2023-06-14T03:19:42;13.60;1.00
10278;DHT22;5184;51.376;7.148;2023-06-14T03:22:09;13.60;1.00
10278;DHT22;5184;51.376;7.148;2023-06-14T03:24:37;13.60;1.00
10278;DHT22;5184;51.376;7.148;2023-06-14T03:27:04;13.60;1.00
10278;DHT22;5184;51.376;7.148;2023-06-14T03:29:31;13.60;1.00
10278;DHT22;5184;51.376;7.148;2023-06-14T03:32:00;13.60;1.00
10278;DHT22;5184;51.376;7.148;2023-06-14T03:34:26;13.60;1.00
10278;DHT22;5184;51.376;7.148;2023-06-14T03:36:52;13.70;1.00
10278;DHT22;5184;51.376;7.148;2023-06-14T03:39:20;13.70;1.00
10278;DHT22;5184;51.376;7.148;2023-06-14T03:41:47;13.80;1.00
10278;DHT22;5184;51.376;7.148;2023-06-14T03:44:15;13.80;1.00
10278;DHT22;5184;51.376;7.148;2023-06-14T03:46:42;13.70;1.00
10278;DHT22;5184;51.376;7.148;2023-06-14T03:49:09;13.70;1.00
10278;DHT22;5184;51.376;7.148;2023-06-14T03:51:36;13.70;1.00
10278;DHT22;5184;51.376;7.148;2023-06-14T03:54:03;13.70;1.00
10278;DHT22;5184;51.376;7.148;2023-06-14T03:56:30;13.60;99.90
10278;DHT22;5184;51.376;7.148;2023-06-14T03:58:58;13.60;99.90
10278;DHT22;5184;51.376;7.148;2023-06-14T04:01:24;13.60;99.90
10278;DHT22;5184;51.376;7.148;2023-06-14T04:03:52;13.60;99.90
10278;DHT22;5184;51.376;7.148;2023-06-14T04:06:18;13.60;99.90
10278;DHT22;5184;51.376;7.148;2023-06-14T04:08:45;13.60;99.90
10278;DHT22;5184;51.376;7.148;2023-06-14T04:11:12;13.60;99.90
10278;DHT22;5184;51.376;7.148;2023-06-14T04:13:40;13.80;99.90
10278;DHT22;5184;51.376;7.148;2023-06-14T04:16:07;13.80;99.90
10278;DHT22;5184;51.376;7.148;2023-06-14T04:18:34;13.80;99.90
10278;DHT22;5184;51.376;7.148;2023-06-14T04:21:00;13.80;99.90
10278;DHT22;5184;51.376;7.148;2023-06-14T04:23:27;13.80;99.90
10278;DHT22;5184;51.376;7.148;2023-06-14T04:25:53;13.90;99.90
10278;DHT22;5184;51.376;7.148;2023-06-14T04:28:20;13.90;99.90
10278;DHT22;5184;51.376;7.148;2023-06-14T04:30:47;14.00;99.90
10278;DHT22;5184;51.376;7.148;2023-06-14T04:33:15;14.10;99.90
10278;DHT22;5184;51.376;7.148;2023-06-14T04:35:42;14.10;1.00
10278;DHT22;5184;51.376;7.148;2023-06-14T04:38:09;14.10;1.00
10278;DHT22;5184;51.376;7.148;2023-06-14T04:40:35;14.10;1.00
10278;DHT22;5184;51.376;7.148;2023-06-14T04:43:02;14.20;1.00
10278;DHT22;5184;51.376;7.148;2023-06-14T04:45:28;14.20;1.00
10278;DHT22;5184;51.376;7.148;2023-06-14T04:47:55;14.20;1.00
10278;DHT22;5184;51.376;7.148;2023-06-14T04:50:22;14.30;1.00
10278;DHT22;5184;51.376;7.148;2023-06-14T04:52:48;14.40;1.00
10278;DHT22;5184;51.376;7.148;2023-06-14T04:55:16;14.30;99.90
10278;DHT22;5184;51.376;7.148;2023-06-14T04:57:42;14.50;99.90
10278;DHT22;5184;51.376;7.148;2023-06-14T05:00:09;14.60;99.90
10278;DHT22;5184;51.376;7.148;2023-06-14T05:02:36;14.70;5.00
10278;DHT22;5184;51.376;7.148;2023-06-14T05:05:03;14.80;1.00
10278;DHT22;5184;51.376;7.148;2023-06-14T05:07:30;14.70;1.00
10278;DHT22;5184;51.376;7.148;2023-06-14T05:09:56;14.80;1.00
10278;DHT22;5184;51.376;7.148;2023-06-14T05:12:23;14.80;1.00
10278;DHT22;5184;51.376;7.148;2023-06-14T05:14:50;14.90;1.00
10278;DHT22;5184;51.376;7.148;2023-06-14T05:17:16;15.00;1.00
10278;DHT22;5184;51.376;7.148;2023-06-14T05:19:43;15.00;1.00
10278;DHT22;5184;51.376;7.148;2023-06-14T05:22:10;15.20;99.90
10278;DHT22;5184;51.376;7.148;2023-06-14T05:24:37;15.20;99.90
10278;DHT22;5184;51.376;7.148;2023-06-14T05:27:05;15.30;99.90
10278;DHT22;5184;51.376;7.148;2023-06-14T05:29:31;15.30;99.90
10278;DHT22;5184;51.376;7.148;2023-06-14T05:31:58;15.40;99.90
10278;DHT22;5184;51.376;7.148;2023-06-14T05:34:25;15.50;99.90
10278;DHT22;5184;51.376;7.148;2023-06-14T05:36:51;15.60;99.90
10278;DHT22;5184;51.376;7.148;2023-06-14T05:39:18;15.70;99.90
10278;DHT22;5184;51.376;7.148;2023-06-14T05:41:45;15.90;7.50
10278;DHT22;5184;51.376;7.148;2023-06-14T05:44:13;15.90;1.00
10278;DHT22;5184;51.376;7.148;2023-06-14T05:46:40;16.00;1.00
10278;DHT22;5184;51.376;7.148;2023-06-14T05:49:07;16.10;1.00
10278;DHT22;5184;51.376;7.148;2023-06-14T05:51:35;16.20;1.00
10278;DHT22;5184;51.376;7.148;2023-06-14T05:54:02;16.30;1.00
10278;DHT22;5184;51.376;7.148;2023-06-14T05:56:29;16.30;1.00
10278;DHT22;5184;51.376;7.148;2023-06-14T05:58:55;16.40;1.00
10278;DHT22;5184;51.376;7.148;2023-06-14T06:01:22;16.40;1.00
10278;DHT22;5184;51.376;7.148;2023-06-14T06:03:48;16.50;1.00
10278;DHT22;5184;51.376;7.148;2023-06-14T06:06:15;16.60;1.00
10278;DHT22;5184;51.376;7.148;2023-06-14T06:08:41;16.70;1.00
10278;DHT22;5184;51.376;7.148;2023-06-14T06:11:08;16.80;1.00
10278;DHT22;5184;51.376;7.148;2023-06-14T06:13:35;16.90;99.90
10278;DHT22;5184;51.376;7.148;2023-06-14T06:16:02;16.90;99.90
10278;DHT22;5184;51.376;7.148;2023-06-14T06:18:29;17.00;99.90
10278;DHT22;5184;51.376;7.148;2023-06-14T06:20:55;17.10;99.90
10278;DHT22;5184;51.376;7.148;2023-06-14T06:23:23;17.20;99.90
10278;DHT22;5184;51.376;7.148;2023-06-14T06:25:50;17.30;99.90
10278;DHT22;5184;51.376;7.148;2023-06-14T06:28:17;17.30;99.90
10278;DHT22;5184;51.376;7.148;2023-06-14T06:30:43;17.40;99.90
10278;DHT22;5184;51.376;7.148;2023-06-14T06:33:10;17.50;99.90
10278;DHT22;5184;51.376;7.148;2023-06-14T06:35:36;17.60;99.90
10278;DHT22;5184;51.376;7.148;2023-06-14T06:38:03;17.70;99.90
10278;DHT22;5184;51.376;7.148;2023-06-14T06:40:30;17.90;99.90
10278;DHT22;5184;51.376;7.148;2023-06-14T06:42:58;18.00;99.90
10278;DHT22;5184;51.376;7.148;2023-06-14T06:45:24;17.90;99.90
10278;DHT22;5184;51.376;7.148;2023-06-14T06:47:51;18.10;99.90
10278;DHT22;5184;51.376;7.148;2023-06-14T06:50:17;18.20;99.90
10278;DHT22;5184;51.376;7.148;2023-06-14T06:52:44;18.30;99.90
10278;DHT22;5184;51.376;7.148;2023-06-14T06:55:11;18.30;99.90
10278;DHT22;5184;51.376;7.148;2023-06-14T06:57:38;18.60;99.90
10278;DHT22;5184;51.376;7.148;2023-06-14T07:00:06;18.70;99.90
10278;DHT22;5184;51.376;7.148;2023-06-14T07:02:33;18.70;99.90
10278;DHT22;5184;51.376;7.148;2023-06-14T07:05:00;18.80;99.90
10278;DHT22;5184;51.376;7.148;2023-06-14T07:07:26;18.90;99.90
10278;DHT22;5184;51.376;7.148;2023-06-14T07:09:53;18.90;99.90
10278;DHT22;5184;51.376;7.148;2023-06-14T07:12:20;18.90;99.90
10278;DHT22;5184;51.376;7.148;2023-06-14T07:14:47;19.10;99.90
10278;DHT22;5184;51.376;7.148;2023-06-14T07:17:14;19.20;99.90
10278;DHT22;5184;51.376;7.148;2023-06-14T07:19:41;19.20;99.90
10278;DHT22;5184;51.376;7.148;2023-06-14T07:22:08;19.30;99.90
10278;DHT22;5184;51.376;7.148;2023-06-14T07:24:34;19.30;99.90
10278;DHT22;5184;51.376;7.148;2023-06-14T07:27:02;19.40;99.90
10278;DHT22;5184;51.376;7.148;2023-06-14T07:29:28;19.50;99.90
10278;DHT22;5184;51.376;7.148;2023-06-14T07:31:55;19.50;99.90
10278;DHT22;5184;51.376;7.148;2023-06-14T07:34:22;19.60;99.90
10278;DHT22;5184;51.376;7.148;2023-06-14T07:36:49;19.60;99.90
10278;DHT22;5184;51.376;7.148;2023-06-14T07:39:15;19.70;99.60
10278;DHT22;5184;51.376;7.148;2023-06-14T07:41:42;19.80;98.80
10278;DHT22;5184;51.376;7.148;2023-06-14T07:44:09;20.20;91.80
10278;DHT22;5184;51.376;7.148;2023-06-14T07:46:35;19.80;94.30
10278;DHT22;5184;51.376;7.148;2023-06-14T07:49:02;19.80;92.80
10278;DHT22;5184;51.376;7.148;2023-06-14T07:51:30;19.80;99.90
10278;DHT22;5184;51.376;7.148;2023-06-14T07:53:58;19.80;99.90
10278;DHT22;5184;51.376;7.148;2023-06-14T07:56:23;19.80;97.10
10278;DHT22;5184;51.376;7.148;2023-06-14T07:58:50;19.80;93.00
10278;DHT22;5184;51.376;7.148;2023-06-14T08:01:16;19.70;93.40
10278;DHT22;5184;51.376;7.148;2023-06-14T08:03:43;19.70;89.60
10278;DHT22;5184;51.376;7.148;2023-06-14T08:06:10;19.70;93.80
10278;DHT22;5184;51.376;7.148;2023-06-14T08:08:38;19.70;95.80
10278;DHT22;5184;51.376;7.148;2023-06-14T08:11:05;19.70;88.30
10278;DHT22;5184;51.376;7.148;2023-06-14T08:13:31;19.70;86.60
10278;DHT22;5184;51.376;7.148;2023-06-14T08:15:58;19.80;93.30
10278;DHT22;5184;51.376;7.148;2023-06-14T08:18:25;19.80;96.00
10278;DHT22;5184;51.376;7.148;2023-06-14T08:20:51;19.90;93.80
10278;DHT22;5184;51.376;7.148;2023-06-14T08:23:18;19.90;84.30
10278;DHT22;5184;51.376;7.148;2023-06-14T08:25:45;19.90;93.60
10278;DHT22;5184;51.376;7.148;2023-06-14T08:28:13;19.90;91.00
10278;DHT22;5184;51.376;7.148;2023-06-14T08:30:39;19.80;90.60
10278;DHT22;5184;51.376;7.148;2023-06-14T08:33:06;19.90;93.80
10278;DHT22;5184;51.376;7.148;2023-06-14T08:35:32;19.90;95.90
10278;DHT22;5184;51.376;7.148;2023-06-14T08:37:59;19.90;98.00
10278;DHT22;5184;51.376;7.148;2023-06-14T08:40:26;19.90;95.00
10278;DHT22;5184;51.376;7.148;2023-06-14T08:42:54;20.00;69.30
10278;DHT22;5184;51.376;7.148;2023-06-14T08:45:20;19.90;49.60
10278;DHT22;5184;51.376;7.148;2023-06-14T08:47:47;19.90;73.10
10278;DHT22;5184;51.376;7.148;2023-06-14T08:50:13;19.90;36.60
10278;DHT22;5184;51.376;7.148;2023-06-14T08:52:40;19.90;42.50
10278;DHT22;5184;51.376;7.148;2023-06-14T08:55:07;20.10;39.60
10278;DHT22;5184;51.376;7.148;2023-06-14T08:57:35;20.10;31.10
10278;DHT22;5184;51.376;7.148;2023-06-14T09:00:01;20.10;30.10
10278;DHT22;5184;51.376;7.148;2023-06-14T09:02:28;20.10;29.70
10278;DHT22;5184;51.376;7.148;2023-06-14T09:04:54;20.10;25.70
10278;DHT22;5184;51.376;7.148;2023-06-14T09:07:21;20.10;29.50
10278;DHT22;5184;51.376;7.148;2023-06-14T09:09:47;20.00;26.30
10278;DHT22;5184;51.376;7.148;2023-06-14T09:12:14;20.10;31.90
10278;DHT22;5184;51.376;7.148;2023-06-14T09:14:41;20.10;30.50
10278;DHT22;5184;51.376;7.148;2023-06-14T09:17:09;20.30;27.80
10278;DHT22;5184;51.376;7.148;2023-06-14T09:19:35;20.20;27.20
10278;DHT22;5184;51.376;7.148;2023-06-14T09:22:03;20.30;25.60
10278;DHT22;5184;51.376;7.148;2023-06-14T09:24:28;20.20;26.50
10278;DHT22;5184;51.376;7.148;2023-06-14T09:26:56;20.30;45.00
10278;DHT22;5184;51.376;7.148;2023-06-14T09:29:23;20.30;24.80
10278;DHT22;5184;51.376;7.148;2023-06-14T09:31:50;20.30;24.30
10278;DHT22;5184;51.376;7.148;2023-06-14T09:34:16;20.30;23.80
10278;DHT22;5184;51.376;7.148;2023-06-14T09:36:43;20.30;26.70
10278;DHT22;5184;51.376;7.148;2023-06-14T09:39:10;20.50;21.20
10278;DHT22;5184;51.376;7.148;2023-06-14T09:41:39;20.50;28.00
10278;DHT22;5184;51.376;7.148;2023-06-14T09:44:06;20.40;27.50
10278;DHT22;5184;51.376;7.148;2023-06-14T09:46:32;20.50;23.50
10278;DHT22;5184;51.376;7.148;2023-06-14T09:48:58;20.60;24.40
10278;DHT22;5184;51.376;7.148;2023-06-14T09:51:25;20.60;18.80
10278;DHT22;5184;51.376;7.148;2023-06-14T09:53:52;20.60;19.60
10278;DHT22;5184;51.376;7.148;2023-06-14T09:56:51;20.80;19.00
10278;DHT22;5184;51.376;7.148;2023-06-14T09:59:00;20.70;18.00
10278;DHT22;5184;51.376;7.148;2023-06-14T10:01:30;20.70;16.60
10278;DHT22;5184;51.376;7.148;2023-06-14T10:03:55;20.70;13.00
10278;DHT22;5184;51.376;7.148;2023-06-14T10:06:22;20.70;14.70
10278;DHT22;5184;51.376;7.148;2023-06-14T10:08:49;20.70;13.60
10278;DHT22;5184;51.376;7.148;2023-06-14T10:11:16;20.80;10.90
10278;DHT22;5184;51.376;7.148;2023-06-14T10:13:42;20.80;1.00
10278;DHT22;5184;51.376;7.148;2023-06-14T10:16:12;20.90;1.00
10278;DHT22;5184;51.376;7.148;2023-06-14T10:18:48;21.00;1.00
10278;DHT22;5184;51.376;7.148;2023-06-14T10:21:21;21.00;1.00
10278;DHT22;5184;51.376;7.148;2023-06-14T10:23:45;21.10;1.00
10278;DHT22;5184;51.376;7.148;2023-06-14T10:26:20;21.20;1.00
10278;DHT22;5184;51.376;7.148;2023-06-14T10:29:08;21.30;1.00
10278;DHT22;5184;51.376;7.148;2023-06-14T10:31:49;21.30;1.00
10278;DHT22;5184;51.376;7.148;2023-06-14T10:34:22;21.30;1.00
10278;DHT22;5184;51.376;7.148;2023-06-14T10:36:59;21.30;1.00
10278;DHT22;5184;51.376;7.148;2023-06-14T10:39:17;21.30;1.00
10278;DHT22;5184;51.376;7.148;2023-06-14T10:41:51;21.30;1.00
10278;DHT22;5184;51.376;7.148;2023-06-14T10:44:32;21.30;1.00
10278;DHT22;5184;51.376;7.148;2023-06-14T10:46:59;21.30;1.00
10278;DHT22;5184;51.376;7.148;2023-06-14T10:52:22;21.30;1.00
10278;DHT22;5184;51.376;7.148;2023-06-14T10:55:03;21.30;1.00
10278;DHT22;5184;51.376;7.148;2023-06-14T10:57:30;21.40;1.00
10278;DHT22;5184;51.376;7.148;2023-06-14T10:59:58;21.50;1.00
10278;DHT22;5184;51.376;7.148;2023-06-14T11:02:39;21.50;1.00
10278;DHT22;5184;51.376;7.148;2023-06-14T11:04:59;21.50;1.00
10278;DHT22;5184;51.376;7.148;2023-06-14T11:07:52;21.50;1.00
10278;DHT22;5184;51.376;7.148;2023-06-14T11:10:33;21.60;1.00
10278;DHT22;5184;51.376;7.148;2023-06-14T11:12:54;21.80;1.00
10278;DHT22;5184;51.376;7.148;2023-06-14T11:15:20;21.80;1.00
10278;DHT22;5184;51.376;7.148;2023-06-14T11:17:51;21.90;1.00
10278;DHT22;5184;51.376;7.148;2023-06-14T11:20:18;22.00;1.00
10278;DHT22;5184;51.376;7.148;2023-06-14T11:22:45;21.90;1.00
10278;DHT22;5184;51.376;7.148;2023-06-14T11:25:11;21.90;1.00
10278;DHT22;5184;51.376;7.148;2023-06-14T11:27:38;21.90;1.00
10278;DHT22;5184;51.376;7.148;2023-06-14T11:30:07;22.00;1.00
10278;DHT22;5184;51.376;7.148;2023-06-14T11:32:34;22.00;1.00
10278;DHT22;5184;51.376;7.148;2023-06-14T11:35:02;22.10;1.00
10278;DHT22;5184;51.376;7.148;2023-06-14T11:37:28;22.10;1.00
10278;DHT22;5184;51.376;7.148;2023-06-14T11:39:56;22.30;1.00
10278;DHT22;5184;51.376;7.148;2023-06-14T11:42:24;22.30;1.00
10278;DHT22;5184;51.376;7.148;2023-06-14T11:44:50;22.30;1.00
10278;DHT22;5184;51.376;7.148;2023-06-14T11:47:16;22.30;1.00
10278;DHT22;5184;51.376;7.148;2023-06-14T11:49:43;22.40;1.00
10278;DHT22;5184;51.376;7.148;2023-06-14T11:52:10;22.50;1.00
10278;DHT22;5184;51.376;7.148;2023-06-14T11:54:37;22.60;1.00
10278;DHT22;5184;51.376;7.148;2023-06-14T11:57:03;22.60;1.00
10278;DHT22;5184;51.376;7.148;2023-06-14T11:59:31;22.70;1.00
10278;DHT22;5184;51.376;7.148;2023-06-14T12:01:58;22.80;1.00
10278;DHT22;5184;51.376;7.148;2023-06-14T12:04:26;22.90;1.00
10278;DHT22;5184;51.376;7.148;2023-06-14T12:06:53;22.80;1.00
10278;DHT22;5184;51.376;7.148;2023-06-14T12:09:20;23.00;1.00
10278;DHT22;5184;51.376;7.148;2023-06-14T12:11:47;23.00;1.00
10278;DHT22;5184;51.376;7.148;2023-06-14T12:14:14;23.20;1.00
10278;DHT22;5184;51.376;7.148;2023-06-14T12:16:41;23.20;1.00
10278;DHT22;5184;51.376;7.148;2023-06-14T12:19:13;23.20;1.00
10278;DHT22;5184;51.376;7.148;2023-06-14T12:21:39;23.20;1.00
10278;DHT22;5184;51.376;7.148;2023-06-14T12:24:07;23.30;1.00
10278;DHT22;5184;51.376;7.148;2023-06-14T12:26:37;23.40;1.00
10278;DHT22;5184;51.376;7.148;2023-06-14T12:29:04;23.50;1.00
10278;DHT22;5184;51.376;7.148;2023-06-14T12:31:29;23.60;1.00
10278;DHT22;5184;51.376;7.148;2023-06-14T12:33:56;23.60;1.00
10278;DHT22;5184;51.376;7.148;2023-06-14T12:36:22;23.70;1.00
10278;DHT22;5184;51.376;7.148;2023-06-14T12:38:49;23.80;1.00
10278;DHT22;5184;51.376;7.148;2023-06-14T12:41:15;23.80;1.00
10278;DHT22;5184;51.376;7.148;2023-06-14T12:43:42;23.80;1.00
10278;DHT22;5184;51.376;7.148;2023-06-14T12:46:08;23.80;1.00
10278;DHT22;5184;51.376;7.148;2023-06-14T12:48:35;23.80;1.00
10278;DHT22;5184;51.376;7.148;2023-06-14T12:51:02;23.80;1.00
10278;DHT22;5184;51.376;7.148;2023-06-14T12:53:28;23.90;1.00
10278;DHT22;5184;51.376;7.148;2023-06-14T12:55:56;24.20;1.00
10278;DHT22;5184;51.376;7.148;2023-06-14T12:58:23;24.10;1.00
10278;DHT22;5184;51.376;7.148;2023-06-14T13:00:50;24.10;1.00
10278;DHT22;5184;51.376;7.148;2023-06-14T13:03:18;24.10;1.00
10278;DHT22;5184;51.376;7.148;2023-06-14T13:05:45;24.10;1.00
10278;DHT22;5184;51.376;7.148;2023-06-14T13:08:12;24.20;1.00
10278;DHT22;5184;51.376;7.148;2023-06-14T13:10:39;24.20;1.00
10278;DHT22;5184;51.376;7.148;2023-06-14T13:13:06;24.20;1.00
10278;DHT22;5184;51.376;7.148;2023-06-14T13:15:32;24.20;1.00
10278;DHT22;5184;51.376;7.148;2023-06-14T13:17:59;24.20;1.00
10278;DHT22;5184;51.376;7.148;2023-06-14T13:20:25;24.40;1.00
10278;DHT22;5184;51.376;7.148;2023-06-14T13:22:52;24.50;1.00
10278;DHT22;5184;51.376;7.148;2023-06-14T13:25:19;24.70;1.00
10278;DHT22;5184;51.376;7.148;2023-06-14T13:27:45;24.70;1.00
10278;DHT22;5184;51.376;7.148;2023-06-14T13:30:12;24.70;1.00
10278;DHT22;5184;51.376;7.148;2023-06-14T13:32:39;24.80;1.00
10278;DHT22;5184;51.376;7.148;2023-06-14T13:35:06;24.80;1.00
10278;DHT22;5184;51.376;7.148;2023-06-14T13:37:33;24.80;1.00
10278;DHT22;5184;51.376;7.148;2023-06-14T13:39:59;24.80;1.00
10278;DHT22;5184;51.376;7.148;2023-06-14T13:42:26;24.70;1.00
10278;DHT22;5184;51.376;7.148;2023-06-14T13:44:52;24.80;1.00
10278;DHT22;5184;51.376;7.148;2023-06-14T13:47:19;25.00;1.00
10278;DHT22;5184;51.376;7.148;2023-06-14T13:49:46;25.00;1.00
10278;DHT22;5184;51.376;7.148;2023-06-14T13:52:12;25.20;1.00
10278;DHT22;5184;51.376;7.148;2023-06-14T13:54:39;25.30;1.00
10278;DHT22;5184;51.376;7.148;2023-06-14T13:57:06;25.40;1.00
10278;DHT22;5184;51.376;7.148;2023-06-14T13:59:33;25.50;1.00
10278;DHT22;5184;51.376;7.148;2023-06-14T14:02:01;25.60;1.00
10278;DHT22;5184;51.376;7.148;2023-06-14T14:04:28;25.70;1.00
10278;DHT22;5184;51.376;7.148;2023-06-14T14:06:55;25.70;1.00
10278;DHT22;5184;51.376;7.148;2023-06-14T14:09:23;25.70;1.00
10278;DHT22;5184;51.376;7.148;2023-06-14T14:11:50;25.80;1.00
10278;DHT22;5184;51.376;7.148;2023-06-14T14:14:17;25.80;1.00
10278;DHT22;5184;51.376;7.148;2023-06-14T14:16:43;25.90;1.00
10278;DHT22;5184;51.376;7.148;2023-06-14T14:19:10;25.90;1.00
10278;DHT22;5184;51.376;7.148;2023-06-14T14:21:37;26.00;1.00
10278;DHT22;5184;51.376;7.148;2023-06-14T14:24:03;25.80;1.00
10278;DHT22;5184;51.376;7.148;2023-06-14T14:26:30;25.80;1.00
10278;DHT22;5184;51.376;7.148;2023-06-14T14:28:57;25.80;1.00
10278;DHT22;5184;51.376;7.148;2023-06-14T14:31:23;25.90;1.00
10278;DHT22;5184;51.376;7.148;2023-06-14T14:33:50;26.10;1.00
10278;DHT22;5184;51.376;7.148;2023-06-14T14:36:16;26.60;1.00
10278;DHT22;5184;51.376;7.148;2023-06-14T14:38:44;28.60;1.00
10278;DHT22;5184;51.376;7.148;2023-06-14T14:41:11;29.10;1.00
10278;DHT22;5184;51.376;7.148;2023-06-14T14:43:38;29.40;1.00
10278;DHT22;5184;51.376;7.148;2023-06-14T14:46:06;29.60;1.00
10278;DHT22;5184;51.376;7.148;2023-06-14T14:48:33;29.40;1.00
10278;DHT22;5184;51.376;7.148;2023-06-14T14:51:01;29.20;1.00
10278;DHT22;5184;51.376;7.148;2023-06-14T14:53:28;28.90;1.00
10278;DHT22;5184;51.376;7.148;2023-06-14T14:55:55;28.90;1.00
10278;DHT22;5184;51.376;7.148;2023-06-14T14:58:22;28.80;1.00
10278;DHT22;5184;51.376;7.148;2023-06-14T15:00:48;28.60;1.00
10278;DHT22;5184;51.376;7.148;2023-06-14T15:03:15;28.20;1.00
10278;DHT22;5184;51.376;7.148;2023-06-14T15:05:42;28.10;1.00
10278;DHT22;5184;51.376;7.148;2023-06-14T15:08:10;28.00;1.00
10278;DHT22;5184;51.376;7.148;2023-06-14T15:10:38;27.90;1.00
10278;DHT22;5184;51.376;7.148;2023-06-14T15:13:04;27.90;1.00
10278;DHT22;5184;51.376;7.148;2023-06-14T15:15:31;28.20;1.00
10278;DHT22;5184;51.376;7.148;2023-06-14T15:17:59;28.60;1.00
10278;DHT22;5184;51.376;7.148;2023-06-14T15:20:26;28.80;1.00
10278;DHT22;5184;51.376;7.148;2023-06-14T15:22:53;28.70;1.00
10278;DHT22;5184;51.376;7.148;2023-06-14T15:25:20;28.50;1.00
10278;DHT22;5184;51.376;7.148;2023-06-14T15:27:48;28.40;1.00
10278;DHT22;5184;51.376;7.148;2023-06-14T15:30:15;28.40;1.00
10278;DHT22;5184;51.376;7.148;2023-06-14T15:32:42;28.40;1.00
10278;DHT22;5184;51.376;7.148;2023-06-14T15:35:08;28.50;1.00
10278;DHT22;5184;51.376;7.148;2023-06-14T15:37:35;28.50;1.00
10278;DHT22;5184;51.376;7.148;2023-06-14T15:40:02;28.50;1.00
10278;DHT22;5184;51.376;7.148;2023-06-14T15:42:28;28.50;1.00
10278;DHT22;5184;51.376;7.148;2023-06-14T15:44:55;28.60;1.00
10278;DHT22;5184;51.376;7.148;2023-06-14T15:47:21;28.60;1.00
10278;DHT22;5184;51.376;7.148;2023-06-14T15:49:48;28.90;1.00
10278;DHT22;5184;51.376;7.148;2023-06-14T15:52:14;28.90;1.00
10278;DHT22;5184;51.376;7.148;2023-06-14T15:54:41;28.70;1.00
10278;DHT22;5184;51.376;7.148;2023-06-14T15:57:08;28.90;1.00
10278;DHT22;5184;51.376;7.148;2023-06-14T15:59:36;29.10;1.00